createdAt,value
2019-05-02T00:02:18.603Z,70.60
2019-05-02T00:04:50.959Z,70.43
2019-05-02T00:07:24.235Z,70.65
2019-05-02T00:09:56.337Z,71.38
2019-05-02T00:12:28.315Z,71.14
2019-05-02T00:15:02.435Z,71.48
2019-05-02T00:17:35.392Z,72.00
2019-05-02T00:20:08.733Z,71.89
2019-05-02T00:22:40.447Z,71.94
2019-05-02T00:25:16.011Z,72.17
2019-05-02T00:27:45.223Z,72.23
2019-05-02T00:30:18.213Z,72.09
2019-05-02T00:32:53.155Z,72.20
2019-05-02T00:35:23.789Z,72.67
2019-05-02T00:37:57.371Z,72.32
2019-05-02T00:40:28.926Z,72.65
2019-05-02T00:43:00.701Z,72.69
2019-05-02T00:45:32.609Z,72.92
2019-05-02T00:48:09.675Z,72.78
2019-05-02T00:50:45.456Z,72.72
2019-05-02T00:53:14.874Z,72.58
2019-05-02T00:55:47.039Z,72.67
2019-05-02T00:58:19.119Z,72.73
2019-05-02T01:00:53.173Z,73.03
2019-05-02T01:03:26.617Z,72.89
2019-05-02T01:05:58.244Z,72.60
2019-05-02T01:08:30.901Z,72.64
2019-05-02T01:11:03.809Z,72.50
2019-05-02T01:13:35.665Z,72.31
2019-05-02T01:16:07.551Z,72.22
2019-05-02T01:18:41.280Z,72.26
2019-05-02T01:21:13.735Z,72.44
2019-05-02T01:23:45.381Z,72.60
2019-05-02T01:26:17.212Z,72.70
2019-05-02T01:28:54.339Z,72.50
2019-05-02T01:31:28.107Z,72.51
2019-05-02T01:34:17.954Z,72.69
2019-05-02T01:36:51.797Z,72.71
2019-05-02T01:39:23.574Z,72.53
2019-05-02T01:41:55.437Z,72.40
2019-05-02T01:44:31.199Z,72.19
2019-05-02T01:47:00.356Z,72.42
2019-05-02T01:49:32.218Z,72.34
2019-05-02T01:52:04.148Z,72.39
2019-05-02T01:54:35.740Z,72.22
2019-05-02T01:57:08.764Z,72.30
2019-05-02T01:59:40.908Z,72.26
2019-05-02T02:02:12.771Z,72.21
2019-05-02T02:04:44.538Z,72.15
2019-05-02T02:07:19.947Z,72.18
2019-05-02T02:09:49.513Z,72.20
2019-05-02T02:12:21.350Z,72.33
2019-05-02T02:14:55.240Z,72.20
2019-05-02T02:17:26.267Z,72.21
2019-05-02T02:20:09.707Z,72.20
2019-05-02T02:22:43.404Z,71.86
2019-05-02T02:25:26.072Z,71.89
2019-05-02T02:27:59.754Z,71.86
2019-05-02T02:30:31.094Z,71.82
2019-05-02T02:33:07.743Z,71.71
2019-05-02T02:35:35.927Z,71.54
2019-05-02T02:38:07.686Z,72.02
2019-05-02T02:40:39.217Z,72.13
2019-05-02T02:43:32.218Z,72.14
2019-05-02T02:45:51.845Z,72.18
2019-05-02T02:48:22.646Z,71.95
2019-05-02T02:50:54.049Z,72.19
2019-05-02T02:53:31.719Z,72.07
2019-05-02T02:56:05.737Z,71.99
2019-05-02T02:58:45.717Z,72.39
2019-05-02T03:01:10.860Z,72.27
2019-05-02T03:03:42.481Z,72.18
2019-05-02T03:06:13.921Z,72.47
2019-05-02T03:08:48.891Z,72.64
2019-05-02T03:11:23.481Z,72.60
2019-05-02T03:14:11.387Z,72.63
2019-05-02T03:16:47.250Z,72.54
2019-05-02T03:19:21.170Z,72.51
2019-05-02T03:22:01.164Z,72.52
2019-05-02T03:24:28.760Z,72.76
2019-05-02T03:27:00.541Z,72.81
2019-05-02T03:29:41.017Z,72.78
2019-05-02T03:32:21.849Z,72.77
2019-05-02T03:34:52.339Z,72.78
2019-05-02T03:37:14.077Z,72.66
2019-05-02T03:39:49.538Z,72.88
2019-05-02T03:42:19.676Z,72.88
2019-05-02T03:44:56.273Z,72.91
2019-05-02T03:47:24.505Z,72.72
2019-05-02T03:49:56.581Z,72.75
2019-05-02T03:52:28.509Z,72.56
2019-05-02T03:55:00.421Z,72.41
2019-05-02T03:57:35.885Z,72.28
2019-05-02T04:00:13.828Z,72.50
2019-05-02T04:02:41.040Z,72.16
2019-05-02T04:05:12.861Z,72.14
2019-05-02T04:07:44.984Z,72.12
2019-05-02T04:10:36.467Z,72.20
2019-05-02T04:13:08.523Z,71.91
2019-05-02T04:15:44.673Z,72.19
2019-05-02T04:18:17.934Z,72.28
2019-05-02T04:20:52.016Z,72.28
2019-05-02T04:23:27.523Z,72.20
2019-05-02T04:25:57.318Z,72.14
2019-05-02T04:28:29.179Z,72.17
2019-05-02T04:31:01.279Z,72.26
2019-05-02T04:33:34.985Z,72.32
2019-05-02T04:36:14.180Z,72.33
2019-05-02T04:38:46.867Z,72.57
2019-05-02T04:41:21.347Z,72.64
2019-05-02T04:43:54.755Z,72.27
2019-05-02T04:46:26.989Z,72.48
2019-05-02T04:48:53.321Z,71.94
2019-05-02T04:51:27.641Z,71.41
2019-05-02T04:53:58.925Z,69.86
2019-05-02T04:56:31.619Z,69.22
2019-05-02T04:59:13.847Z,68.71
2019-05-02T05:01:43.404Z,67.99
2019-05-02T05:04:09.857Z,67.66
2019-05-02T05:06:54.940Z,67.40
2019-05-02T05:09:17.880Z,67.44
2019-05-02T05:11:48.964Z,67.25
2019-05-02T05:14:20.778Z,67.05
2019-05-02T05:16:55.697Z,66.72
2019-05-02T05:19:30.890Z,66.64
2019-05-02T05:22:04.323Z,66.47
2019-05-02T05:24:38.475Z,66.01
2019-05-02T05:27:13.243Z,65.58
2019-05-02T05:29:45.929Z,65.53
2019-05-02T05:32:17.908Z,65.60
2019-05-02T05:34:49.280Z,65.69
2019-05-02T05:37:20.948Z,65.50
2019-05-02T05:39:52.795Z,65.90
2019-05-02T05:42:31.841Z,66.11
2019-05-02T05:44:58.348Z,66.28
2019-05-02T05:47:29.922Z,66.41
2019-05-02T05:50:01.540Z,66.75
2019-05-02T05:52:37.995Z,66.71
2019-05-02T05:55:07.807Z,66.64
2019-05-02T05:57:39.623Z,66.32
2019-05-02T06:00:15.994Z,66.39
2019-05-02T06:02:53.862Z,66.59
2019-05-02T06:05:17.845Z,66.88
2019-05-02T06:07:49.541Z,66.95
2019-05-02T06:10:21.264Z,67.09
2019-05-02T06:12:52.810Z,67.29
2019-05-02T06:15:24.535Z,67.22
2019-05-02T06:17:59.956Z,67.67
2019-05-02T06:20:31.947Z,67.36
2019-05-02T06:23:03.545Z,67.37
2019-05-02T06:25:36.790Z,67.27
2019-05-02T06:28:08.275Z,67.47
2019-05-02T06:30:39.932Z,67.21
2019-05-02T06:33:11.682Z,67.16
2019-05-02T06:35:43.250Z,66.84
2019-05-02T06:38:15.110Z,66.43
2019-05-02T06:40:46.923Z,65.54
2019-05-02T06:43:18.522Z,65.35
2019-05-02T06:45:50.261Z,65.31
2019-05-02T06:48:21.814Z,64.72
2019-05-02T06:50:53.613Z,64.53
2019-05-02T06:53:25.440Z,63.96
2019-05-02T06:55:57.205Z,64.25
2019-05-02T06:58:28.960Z,64.29
2019-05-02T07:01:02.653Z,64.69
2019-05-02T07:03:34.305Z,64.50
2019-05-02T07:06:07.690Z,64.57
2019-05-02T07:08:39.459Z,64.23
2019-05-02T07:11:11.030Z,64.32
2019-05-02T07:13:43.834Z,64.28
2019-05-02T07:16:38.368Z,64.26
2019-05-02T07:19:16.729Z,64.35
2019-05-02T07:21:53.079Z,64.50
2019-05-02T07:24:25.175Z,64.73
2019-05-02T07:26:56.920Z,64.30
2019-05-02T07:29:28.672Z,64.05
2019-05-02T07:32:02.565Z,63.67
2019-05-02T07:34:34.222Z,63.23
2019-05-02T07:37:08.433Z,63.29
2019-05-02T07:39:40.865Z,63.29
2019-05-02T07:42:12.162Z,63.04
2019-05-02T07:44:44.030Z,63.01
2019-05-02T07:47:15.772Z,63.04
2019-05-02T07:49:47.532Z,63.04
2019-05-02T07:52:19.296Z,63.57
2019-05-02T07:54:50.934Z,63.47
2019-05-02T07:57:25.228Z,63.67
2019-05-02T08:00:00.430Z,63.32
2019-05-02T08:02:28.774Z,63.18
2019-05-02T08:05:00.411Z,63.49
2019-05-02T08:07:34.314Z,63.73
2019-05-02T08:10:06.871Z,63.62
2019-05-02T08:12:38.670Z,63.97
2019-05-02T08:15:13.247Z,63.81
2019-05-02T08:17:43.621Z,63.87
2019-05-02T08:20:19.275Z,63.95
2019-05-02T08:22:50.476Z,63.61
2019-05-02T08:25:22.127Z,63.20
2019-05-02T08:27:55.606Z,63.15
2019-05-02T08:30:28.644Z,63.51
2019-05-02T08:33:00.208Z,63.32
2019-05-02T08:35:31.957Z,63.05
2019-05-02T08:38:03.655Z,63.21
2019-05-02T08:40:35.459Z,63.71
2019-05-02T08:43:09.196Z,63.68
2019-05-02T08:45:40.360Z,63.78
2019-05-02T08:48:12.095Z,63.70
2019-05-02T08:50:43.639Z,63.15
2019-05-02T08:53:19.861Z,63.00
2019-05-02T08:55:48.398Z,62.63
2019-05-02T08:58:20.133Z,61.77
2019-05-02T09:00:51.773Z,61.02
2019-05-02T09:03:23.426Z,60.37
2019-05-02T09:06:05.247Z,60.60
2019-05-02T09:08:28.295Z,60.56
2019-05-02T09:11:00.051Z,60.33
2019-05-02T09:13:33.021Z,59.56
2019-05-02T09:16:06.047Z,59.71
2019-05-02T09:18:46.561Z,59.50
2019-05-02T09:21:12.587Z,59.28
2019-05-02T09:23:44.166Z,58.93
2019-05-02T09:26:15.705Z,58.13
2019-05-02T09:28:47.516Z,57.99
2019-05-02T09:31:19.312Z,58.15
2019-05-02T09:33:52.074Z,58.57
2019-05-02T09:36:24.990Z,58.91
2019-05-02T09:38:57.716Z,59.27
2019-05-02T09:41:34.526Z,59.02
2019-05-02T09:44:04.421Z,58.94
2019-05-02T09:46:35.856Z,58.91
2019-05-02T09:49:13.430Z,58.70
2019-05-02T09:51:42.340Z,58.78
2019-05-02T09:54:13.934Z,58.89
2019-05-02T09:56:45.592Z,59.01
2019-05-02T09:59:27.830Z,58.11
2019-05-02T10:01:52.676Z,57.86
2019-05-02T10:04:24.363Z,57.67
2019-05-02T10:06:56.102Z,56.94
2019-05-02T10:09:28.017Z,56.53
2019-05-02T10:12:01.875Z,56.22
2019-05-02T10:14:33.226Z,56.50
2019-05-02T10:17:07.182Z,55.80
2019-05-02T10:19:41.234Z,55.91
2019-05-02T10:22:13.951Z,56.24
2019-05-02T10:24:45.880Z,55.80
2019-05-02T10:27:17.736Z,55.54
2019-05-02T10:29:49.265Z,55.42
2019-05-02T10:32:22.664Z,55.45
2019-05-02T10:34:56.744Z,55.47
2019-05-02T10:37:30.589Z,55.34
2019-05-02T10:40:02.427Z,55.37
2019-05-02T10:42:33.713Z,55.64
2019-05-02T10:45:15.080Z,55.84
2019-05-02T10:47:42.246Z,56.29
2019-05-02T10:50:15.675Z,56.54
2019-05-02T10:52:47.214Z,56.44
2019-05-02T10:55:21.686Z,56.28
2019-05-02T10:57:52.819Z,56.28
2019-05-02T11:00:26.415Z,55.80
2019-05-02T11:03:15.627Z,55.64
2019-05-02T11:05:52.780Z,55.81
2019-05-02T11:08:24.871Z,55.76
2019-05-02T11:10:56.446Z,55.69
2019-05-02T11:13:29.633Z,55.64
2019-05-02T11:16:19.197Z,55.66
2019-05-02T11:18:56.066Z,55.82
2019-05-02T11:21:28.817Z,54.79
2019-05-02T11:24:02.380Z,54.84
2019-05-02T11:26:34.413Z,53.94
2019-05-02T11:29:06.006Z,53.56
2019-05-02T11:31:37.932Z,52.67
2019-05-02T11:34:09.612Z,52.07
2019-05-02T11:36:43.371Z,51.44
2019-05-02T11:39:21.533Z,51.47
2019-05-02T11:41:48.578Z,51.18
2019-05-02T11:44:22.475Z,50.64
2019-05-02T11:46:53.624Z,50.64
2019-05-02T11:49:25.275Z,50.67
2019-05-02T11:51:57.368Z,51.16
2019-05-02T11:54:29.094Z,51.27
2019-05-02T11:57:02.235Z,50.97
2019-05-02T11:59:33.783Z,51.69
2019-05-02T12:02:09.365Z,51.75
2019-05-02T12:04:41.799Z,51.99
2019-05-02T12:07:13.389Z,51.77
2019-05-02T12:09:51.983Z,51.83
2019-05-02T12:12:18.027Z,51.45
2019-05-02T12:14:49.738Z,51.09
2019-05-02T12:17:21.839Z,51.18
2019-05-02T12:19:53.301Z,49.80
2019-05-02T12:22:25.086Z,49.77
2019-05-02T12:24:58.468Z,50.07
2019-05-02T12:27:31.828Z,50.49
2019-05-02T12:30:03.615Z,50.37
2019-05-02T12:32:35.186Z,49.99
2019-05-02T12:35:06.991Z,49.63
2019-05-02T12:37:38.990Z,49.13
2019-05-02T12:40:12.178Z,49.32
2019-05-02T12:42:44.971Z,48.84
2019-05-02T12:45:17.241Z,48.31
2019-05-02T12:47:49.109Z,48.09
2019-05-02T12:50:22.490Z,48.14
2019-05-02T12:52:55.638Z,47.74
2019-05-02T12:55:27.260Z,48.20
2019-05-02T12:57:58.876Z,48.12
2019-05-02T13:00:32.016Z,47.95
2019-05-02T13:03:17.242Z,48.07
2019-05-02T13:05:49.123Z,47.54
2019-05-02T13:08:22.199Z,46.85
2019-05-02T13:11:06.694Z,46.37
2019-05-02T13:13:38.220Z,46.17
2019-05-02T13:16:12.055Z,46.37
2019-05-02T13:18:43.071Z,46.72
2019-05-02T13:21:17.129Z,45.76
2019-05-02T13:23:53.010Z,45.67
2019-05-02T13:26:27.251Z,45.23
2019-05-02T13:28:59.517Z,45.22
2019-05-02T13:31:37.907Z,45.74
2019-05-02T13:34:22.077Z,45.60
2019-05-02T13:36:57.766Z,45.45
2019-05-02T13:39:39.297Z,42.59
2019-05-02T13:42:12.558Z,42.65
2019-05-02T13:44:54.994Z,43.35
2019-05-02T13:47:27.892Z,43.49
2019-05-02T13:50:01.654Z,43.89
2019-05-02T13:52:33.681Z,45.87
2019-05-02T13:55:08.475Z,46.85
2019-05-02T13:57:46.182Z,47.23
2019-05-02T14:00:17.535Z,47.56
2019-05-02T14:02:49.148Z,47.94
2019-05-02T14:05:22.312Z,48.26
2019-05-02T14:07:57.166Z,48.14
2019-05-02T14:10:33.740Z,47.94
2019-05-02T14:13:04.199Z,47.71
2019-05-02T14:15:37.972Z,47.09
2019-05-02T14:18:12.294Z,46.93
2019-05-02T14:20:44.087Z,46.33
2019-05-02T14:23:15.744Z,46.27
2019-05-02T14:25:47.402Z,46.16
2019-05-02T14:28:19.038Z,46.44
2019-05-02T14:30:52.508Z,46.66
2019-05-02T14:33:25.727Z,46.74
2019-05-02T14:35:57.327Z,46.97
2019-05-02T14:38:29.157Z,47.24
2019-05-02T14:41:07.935Z,47.62
2019-05-02T14:43:53.609Z,47.39
2019-05-02T14:46:34.322Z,47.28
2019-05-02T14:48:59.476Z,47.28
2019-05-02T14:51:32.734Z,47.57
2019-05-02T14:54:08.399Z,47.91
2019-05-02T14:56:52.158Z,48.39
2019-05-02T14:59:23.440Z,48.57
2019-05-02T15:01:57.708Z,48.49
2019-05-02T15:04:31.942Z,48.30
2019-05-02T15:07:03.132Z,48.79
2019-05-02T15:09:36.305Z,48.62
2019-05-02T15:12:15.815Z,48.75
2019-05-02T15:14:43.615Z,49.34
2019-05-02T15:17:15.387Z,49.49
2019-05-02T15:19:47.128Z,49.63
2019-05-02T15:22:18.806Z,49.32
2019-05-02T15:24:53.242Z,49.52
2019-05-02T15:27:24.549Z,49.67
2019-05-02T15:30:01.971Z,50.09
2019-05-02T15:32:32.485Z,50.27
2019-05-02T15:35:08.244Z,50.53
2019-05-02T15:37:42.956Z,50.74
2019-05-02T15:42:56.724Z,51.10
2019-05-02T15:45:27.863Z,50.98
2019-05-02T15:48:02.527Z,50.74
2019-05-02T15:50:33.973Z,50.99
2019-05-02T15:53:12.496Z,51.26
2019-05-02T15:55:44.115Z,51.39
2019-05-02T15:58:22.676Z,51.43
2019-05-02T16:01:08.191Z,51.04
2019-05-02T16:03:47.732Z,50.85
2019-05-02T16:06:23.999Z,50.75
2019-05-02T16:08:52.793Z,51.13
2019-05-02T16:11:24.349Z,51.31
2019-05-02T16:13:56.382Z,51.37
2019-05-02T16:16:28.181Z,51.49
2019-05-02T16:19:02.180Z,51.34
2019-05-02T16:21:42.659Z,51.18
2019-05-02T16:24:22.913Z,51.09
2019-05-02T16:26:57.231Z,50.99
2019-05-02T16:29:29.250Z,51.13
2019-05-02T16:32:13.270Z,50.86
2019-05-02T16:34:52.086Z,50.75
2019-05-02T16:37:23.785Z,50.52
2019-05-02T16:39:56.379Z,50.29
2019-05-02T16:42:28.141Z,49.66
2019-05-02T16:45:00.013Z,49.32
2019-05-02T16:47:32.617Z,49.13
2019-05-02T16:50:06.826Z,49.25
2019-05-02T16:52:43.648Z,49.05
2019-05-02T16:55:21.082Z,48.71
2019-05-02T16:57:47.711Z,48.91
2019-05-02T17:00:22.749Z,48.97
2019-05-02T17:02:54.388Z,48.97
2019-05-02T17:05:26.196Z,48.94
2019-05-02T17:08:03.111Z,49.13
2019-05-02T17:10:42.340Z,49.12
2019-05-02T17:13:14.094Z,49.01
2019-05-02T17:15:45.643Z,48.87
2019-05-02T17:18:18.338Z,49.10
2019-05-02T17:20:53.552Z,49.16
2019-05-02T17:23:24.300Z,49.37
2019-05-02T17:25:56.366Z,49.46
2019-05-02T17:28:28.116Z,49.41
2019-05-02T17:30:59.979Z,49.85
2019-05-02T17:33:32.394Z,49.83
2019-05-02T17:36:04.045Z,49.77
2019-05-02T17:38:35.775Z,49.85
2019-05-02T17:41:07.980Z,49.98
2019-05-02T17:43:42.143Z,50.01
2019-05-02T17:46:18.676Z,49.95
2019-05-02T17:48:47.651Z,50.30
2019-05-02T17:51:33.901Z,50.33
2019-05-02T17:54:03.616Z,50.19
2019-05-02T17:56:35.373Z,50.41
2019-05-02T17:59:07.537Z,50.76
2019-05-02T18:01:41.828Z,51.07
2019-05-02T18:04:16.455Z,51.23
2019-05-02T18:06:51.045Z,51.08
2019-05-02T18:09:26.235Z,51.20
2019-05-02T18:11:55.542Z,51.45
2019-05-02T18:14:27.236Z,52.61
2019-05-02T18:16:59.058Z,52.97
2019-05-02T18:19:31.596Z,52.96
2019-05-02T18:22:07.059Z,52.83
2019-05-02T18:24:37.314Z,53.21
2019-05-02T18:27:10.388Z,53.41
2019-05-02T18:29:45.445Z,53.51
2019-05-02T18:32:17.487Z,53.27
2019-05-02T18:34:48.176Z,53.25
2019-05-02T18:37:21.773Z,53.94
2019-05-02T18:39:55.857Z,53.85
2019-05-02T18:42:26.283Z,53.58
2019-05-02T18:44:58.405Z,53.41
2019-05-02T18:47:29.981Z,53.32
2019-05-02T18:50:06.139Z,53.05
2019-05-02T18:52:42.919Z,52.78
2019-05-02T18:55:09.142Z,52.68
2019-05-02T18:57:42.365Z,52.57
2019-05-02T19:00:15.240Z,52.30
2019-05-02T19:02:46.703Z,52.24
2019-05-02T19:05:20.543Z,51.63
2019-05-02T19:07:56.221Z,51.46
2019-05-02T19:10:25.745Z,51.42
2019-05-02T19:13:00.958Z,51.49
2019-05-02T19:15:34.366Z,51.27
2019-05-02T19:18:04.072Z,50.93
2019-05-02T19:20:56.803Z,50.81
2019-05-02T19:23:25.207Z,50.66
2019-05-02T19:25:56.654Z,50.58
2019-05-02T19:28:36.757Z,50.48
2019-05-02T19:31:06.935Z,50.34
2019-05-02T19:33:37.425Z,50.23
2019-05-02T19:36:09.825Z,50.03
2019-05-02T19:38:42.811Z,49.95
2019-05-02T19:41:14.404Z,50.04
2019-05-02T19:43:49.901Z,50.07
2019-05-02T19:46:25.414Z,49.33
2019-05-02T19:48:52.681Z,49.94
2019-05-02T19:51:24.467Z,49.25
2019-05-02T19:53:59.440Z,49.04
2019-05-02T19:56:33.430Z,48.74
2019-05-02T19:59:02.825Z,48.50
2019-05-02T20:01:34.623Z,48.57
2019-05-02T20:04:09.288Z,49.08
2019-05-02T20:06:39.544Z,48.65
2019-05-02T20:09:11.808Z,48.83
2019-05-02T20:11:43.340Z,48.99
2019-05-02T20:14:15.126Z,48.88
2019-05-02T20:16:50.243Z,49.01
2019-05-02T20:19:23.188Z,48.95
2019-05-02T20:22:02.859Z,49.14
2019-05-02T20:24:55.312Z,49.17
2019-05-02T20:27:28.262Z,49.48
2019-05-02T20:29:59.227Z,49.37
2019-05-02T20:32:32.244Z,49.60
2019-05-02T20:35:04.418Z,49.84
2019-05-02T20:37:36.341Z,49.65
2019-05-02T20:40:11.875Z,49.55
2019-05-02T20:42:42.825Z,49.86
2019-05-02T20:45:15.839Z,49.81
2019-05-02T20:47:47.367Z,49.89
2019-05-02T20:50:19.024Z,50.00
2019-05-02T20:52:52.418Z,49.94
2019-05-02T20:55:24.085Z,49.89
2019-05-02T20:57:55.932Z,49.97
2019-05-02T21:00:32.229Z,50.05
2019-05-02T21:03:03.851Z,50.43
2019-05-02T21:05:52.197Z,51.00
2019-05-02T21:08:26.136Z,51.06
2019-05-02T21:10:59.298Z,51.45
2019-05-02T21:13:32.730Z,51.55
2019-05-02T21:16:04.652Z,51.90
2019-05-02T21:18:36.417Z,52.40
2019-05-02T21:21:08.086Z,52.55
2019-05-02T21:23:44.757Z,52.81
2019-05-02T21:26:13.180Z,52.85
2019-05-02T21:28:46.232Z,53.27
2019-05-02T21:31:17.965Z,53.28
2019-05-02T21:33:49.619Z,53.70
2019-05-02T21:36:22.696Z,53.77
2019-05-02T21:38:54.182Z,54.02
2019-05-02T21:41:26.037Z,54.40
2019-05-02T21:43:57.780Z,54.58
2019-05-02T21:46:29.429Z,54.87
2019-05-02T21:49:01.289Z,55.56
2019-05-02T21:51:37.765Z,55.74
2019-05-02T21:54:27.360Z,56.18
2019-05-02T21:57:02.614Z,56.31
2019-05-02T21:59:35.148Z,56.75
2019-05-02T22:02:08.650Z,57.12
2019-05-02T22:04:42.185Z,57.14
2019-05-02T22:07:13.496Z,57.52
2019-05-02T22:09:44.946Z,57.87
2019-05-02T22:12:16.749Z,58.52
2019-05-02T22:14:48.254Z,59.15
2019-05-02T22:17:21.549Z,59.26
2019-05-02T22:19:53.202Z,59.57
2019-05-02T22:22:25.064Z,59.91
2019-05-02T22:24:56.939Z,59.85
2019-05-02T22:27:28.987Z,60.30
2019-05-02T22:30:02.098Z,60.71
2019-05-02T22:32:33.765Z,60.84
2019-05-02T22:35:07.023Z,60.81
2019-05-02T22:37:40.109Z,60.87
2019-05-02T22:40:13.623Z,60.99
2019-05-02T22:42:45.475Z,61.17
2019-05-02T22:45:17.231Z,61.60
2019-05-02T22:47:48.985Z,61.54
2019-05-02T22:50:22.061Z,61.50
2019-05-02T22:52:53.651Z,61.31
2019-05-02T22:55:25.081Z,61.00
2019-05-02T22:57:56.831Z,60.95
2019-05-02T23:00:28.393Z,60.76
2019-05-02T23:03:01.774Z,60.67
2019-05-02T23:05:34.422Z,60.71
2019-05-02T23:08:06.015Z,60.88
2019-05-02T23:10:37.399Z,61.19
2019-05-02T23:13:09.119Z,60.97
2019-05-02T23:15:42.710Z,61.22
2019-05-02T23:18:14.587Z,61.33
2019-05-02T23:20:46.268Z,61.61
2019-05-02T23:23:17.892Z,61.55
2019-05-02T23:26:07.897Z,61.91
2019-05-02T23:28:47.025Z,62.16
2019-05-02T23:31:18.765Z,62.41
2019-05-02T23:33:59.326Z,62.38
2019-05-02T23:36:32.630Z,62.46
2019-05-02T23:39:05.646Z,62.36
2019-05-02T23:41:37.479Z,62.11
2019-05-02T23:44:09.225Z,62.17
2019-05-02T23:46:42.444Z,62.48
2019-05-02T23:49:15.196Z,62.51
2019-05-02T23:51:46.752Z,62.60
2019-05-02T23:54:18.509Z,62.62
2019-05-02T23:56:50.466Z,62.79
2019-05-02T23:59:22.443Z,62.98
